Aviation Digital Data Service (ADDS)

Output produced by METARs form (1349 UTC 26 May 2018)
found at http://www.aviationweather.gov/adds/metars/
 
KEAR 261141Z 2612/2712 VRB04KT P6SM SKC 
     FM261600 21007KT P6SM SKC 
     FM261900 17010KT P6SM SKC 
     FM270800 18008KT P6SM FEW250
       
KEAT 261132Z 2612/2712 30016KT P6SM FEW120 
     FM261800 30018G23KT P6SM SKC 
     FM270400 30016KT P6SM FEW100 FEW250 
     FM270900 31011KT P6SM FEW100
       
KEAU 261209Z 2612/2712 00000KT P6SM SKC 
     FM261500 26008KT P6SM SKC 
     FM270100 00000KT P6SM SKC
       
KECG 261120Z 2612/2712 22008KT P6SM SCT200 
     FM261500 21012KT P6SM SCT035 
     FM270300 20010KT P6SM BKN050
       
KEED 261125Z 2612/2712 24011KT P6SM SKC 
     FM261900 21008KT P6SM SKC 
     FM262100 22014G22KT P6SM SKC 
     FM270400 27011KT P6SM SKC
       
KEET 261225Z 2612/2712 00000KT P6SM OVC008 
     FM261500 19005KT P6SM BKN025 
     FM261800 19006KT P6SM VCTS BKN045CB 
     FM270000 19003KT P6SM SCT100 BKN250
       
TAF KEFD 261200Z 2612/2718 26003KT 8000 BR SCT010 BKN020 QNH2986INS 
     BECMG 2617/2618 VRB06KT 9999 NSW SCT030 BKN040 QNH2976INS 
     BECMG 2705/2706 VRB03KT 4800 BR FEW020 SCT030 QNH2977INS 
     TEMPO 2709/2712 1600 BR 
     BECMG 2715/2716 01003KT 9999 NSW SCT040 BKN050 QNH2979INS TX33/2621Z TN24/2712Z
       
KEGE 261139Z 2612/2712 VRB03KT P6SM SKC 
     FM261800 23008KT P6SM SCT250 
     FM262100 23015G25KT P6SM SCT200 
     FM270300 14008KT P6SM SCT200 
     FM270800 VRB03KT P6SM BKN150 AMD LTD TO CLD VIS AND WIND TIL 261300
       
KEKN 261141Z 2612/2712 00000KT 4SM BR SCT045 
     FM261330 26003KT P6SM SCT100 
     FM261800 25003KT 6SM -SHRA VCTS OVC050CB 
     FM270200 00000KT P6SM BKN050
       
KZZV 261124Z 2612/2712 VRB03KT P6SM BKN250 
     FM261800 22005KT 6SM -RA VCTS BKN040CB 
     FM270300 20007KT P6SM BKN070
       
KELP 261138Z 2612/2712 22006KT P6SM SCT250 
     FM262100 23009G16KT P6SM BKN250 
     FM270100 26011KT P6SM SCT180 BKN250 
     FM270300 28014G22KT P6SM SCT200
       
KELY 261135Z 2612/2712 16010KT P6SM SKC 
     FM262000 22012G20KT P6SM VCSH SCT060 BKN120 
     TEMPO 2622/2702 VRB15G25KT -TSRA BKN050CB 
     FM270200 31010G20KT P6SM VCSH SCT060 BKN120 
     FM270600 VRB06KT P6SM SCT060 OVC100
       
KEKO 261135Z 2612/2712 24006KT P6SM FEW120 
     FM261900 29013KT P6SM VCTS SCT050 BKN070CB 
     TEMPO 2621/2701 VRB15G25KT -TSRA BKN050CB 
     FM270200 31010G20KT P6SM VCSH SCT060 BKN120 
     FM270600 23005KT P6SM OVC100
       
KENV 261120Z 2612/2712 32007KT P6SM FEW140 
     FM261400 11007KT P6SM SCT140 
     FM262300 30015G25KT P6SM SCT080 BKN120 
     FM270200 34017G27KT P6SM BKN080
       
KENW 261120Z 2612/2712 24008KT P6SM BKN250 
     FM261800 15008KT P6SM FEW250 
     FM270200 20004KT P6SM FEW250
       
KERI 261124Z 2612/2712 19010KT P6SM BKN150 
     FM261500 24008KT P6SM BKN150 
     FM261800 32007KT P6SM BKN120 
     FM262300 VRB03KT P6SM OVC100 
     FM270900 VRB03KT P6SM SCT060
       
KEUG 261132Z 2612/2712 22004KT P6SM OVC045 
     FM261500 22004KT P6SM SCT015 OVC030 
     FM261800 24005KT P6SM BKN050 
     FM262100 33007KT P6SM BKN050
       
KEUL 261120Z 2612/2712 31010KT P6SM BKN100 
     FM261700 31015G25KT P6SM BKN100 
     FM262100 32015G25KT P6SM VCSH BKN100 
     FM270200 31015G25KT P6SM BKN150
       
KEVV 261120Z 2612/2712 22005KT P6SM SCT030 BKN150 
     FM261700 23005KT P6SM VCTS SCT025CB SCT110 
     FM262200 VRB02KT P6SM FEW030 SCT200
       
KEVW 261120Z 2612/2712 20006KT P6SM SKC 
     FM261900 22012G18KT P6SM SCT100 BKN150 
     FM270100 24010KT P6SM BKN100
       
KEWN 261319Z 2613/2712 24005KT P6SM SCT015 
     FM261500 20010KT P6SM SCT040 
     FM261800 19010G15KT P6SM VCSH BKN040 
     FM262300 19010KT P6SM SCT150 
     FM270300 20006KT P6SM BKN250
       
KEWR 261141Z 2612/2718 23009KT P6SM FEW250 
     FM261900 24010G18KT P6SM SCT060 BKN150 
     FM262000 24009KT P6SM VCTS SCT060CB BKN120 
     FM270000 25008KT 5SM -SHRA VCTS SCT060CB BKN120 
     FM270500 VRB04KT 5SM -SHRA SCT045 OVC100 
     FM271100 04008KT 5SM -RA OVC025 
     FM271200 05009KT 5SM -RA OVC015
       
KEYW 261134Z 2612/2712 13011KT P6SM -RA SCT015 SCT060 OVC070 
     TEMPO 2613/2616 13018G28KT 3SM +SHRA BR BKN015 BKN040 
     FM261600 13017G28KT 5SM -RA VCSH SCT015 BKN040 OVC060 
     TEMPO 2616/2620 15020G30KT 1SM SHRA BR BKN012 OVC040 
     FM262000 15020G32KT 5SM -RA VCTS OVC015CB 
     PROB30 2621/2703 17025G38KT 1/2SM +TSRA FG BKN012CB OVC030